Latest Weather Observations for Bellambi

IDN60901

Issued at 7:41 pm EDT Saturday 3 December 2022 (issued every 10 minutes, with the page automatically refreshed every 10 minutes)

About weather observations | Map of Sydney area stations | Latest observations for Sydney area | Other Formats
Station Details ID: 068228 Name: BELLAMBI AWS Lat: -34.37 Lon: 150.93 Height: 10.0 m
Data from the previous 72 hours. | See also: Recent months at Bellambi
Date/Time
EDT
Temp
°C
App
Temp
°C
Dew
Point
°C
Rel
Hum
%
Delta-T
°C
Wind Press
QNH
hPa
Press
MSL
hPa
Rain since
9am
mm
Dir  Spd
km/h
Gust
km/h
Spd
kts
Gust
kts
03/07:30pm 18.9 16.4 14.2 74 2.7 NE 20 24 11 13 - - 0.0
03/07:00pm 19.1 16.5 13.9 72 3.0 NE 20 24 11 13 - - 0.0
03/06:30pm 19.4 17.1 14.0 71 3.1 NE 19 24 10 13 - - 0.0
03/06:00pm 19.8 17.6 14.4 71 3.1 NE 19 22 10 12 - - 0.0
03/05:30pm 20.3 18.6 14.7 70 3.3 NE 17 20 9 11 - - 0.0
03/05:00pm 20.8 19.0 14.5 67 3.7 NE 17 20 9 11 - - 0.0
03/04:30pm 20.6 18.6 13.8 65 3.9 NE 17 20 9 11 - - 0.0
03/04:00pm 20.7 18.2 13.6 64 4.1 NE 19 20 10 11 - - 0.0
03/03:30pm 21.1 19.3 14.5 66 3.9 ENE 17 19 9 10 - - 0.0
03/03:00pm 21.3 19.8 15.2 68 3.6 ENE 17 20 9 11 - - 0.0
03/02:30pm 20.7 19.2 14.1 66 3.8 ENE 15 19 8 10 - - 0.0
03/02:00pm 20.8 19.1 13.7 64 4.1 ENE 15 19 8 10 - - 0.0
03/01:30pm 21.1 19.3 13.3 61 4.5 ENE 15 19 8 10 - - 0.0
03/01:00pm 20.9 20.1 15.0 69 3.5 ENE 13 17 7 9 - - 0.0
03/12:30pm 20.9 20.0 14.8 68 3.6 E 13 17 7 9 - - 0.0
03/12:00pm 20.5 19.5 14.6 69 3.4 E 13 15 7 8 - - 0.0
03/11:30am 20.8 20.2 14.7 68 3.6 ESE 11 15 6 8 - - 0.0
03/11:00am 20.3 18.9 14.4 69 3.4 SE 15 17 8 9 - - 0.0
03/10:30am 20.3 19.0 14.7 70 3.3 SE 15 17 8 9 - - 0.0
03/10:00am 20.0 18.8 14.1 69 3.4 SSE 13 15 7 8 - - 0.0
03/09:30am 19.6 18.6 13.3 67 3.6 S 11 15 6 8 - - 0.0
03/09:00am 19.1 17.6 13.1 68 3.4 S 13 15 7 8 - - 0.4
03/08:30am 18.8 17.5 12.5 67 3.5 S 11 17 6 9 - - 0.4
03/08:00am 17.9 17.4 12.8 72 2.8 SSW 7 11 4 6 - - 0.4
03/07:30am 16.7 16.2 12.7 77 2.2 SW 7 9 4 5 - - 0.2
03/07:00am 15.3 14.2 12.1 81 1.7 WSW 9 13 5 7 - - 0.2
03/06:30am 13.8 12.2 11.7 87 1.1 W 11 13 6 7 - - 0.2
03/06:00am 13.4 12.1 11.1 86 1.2 WSW 9 11 5 6 - - 0.2
03/05:30am 13.9 12.6 11.2 84 1.4 W 9 11 5 6 - - 0.2
03/05:00am 14.0 11.9 11.3 84 1.4 W 13 13 7 7 - - 0.2
03/04:30am 14.0 12.4 11.5 85 1.3 WSW 11 13 6 7 - - 0.2
03/04:00am 14.1 12.5 11.4 84 1.4 W 11 13 6 7 - - 0.2
03/03:30am 14.2 12.2 11.5 84 1.4 WSW 13 13 7 7 - - 0.2
03/03:00am 14.4 12.4 11.6 83 1.5 WSW 13 15 7 8 - - 0.2
03/02:30am 14.8 13.4 12.1 84 1.5 WSW 11 15 6 8 - - 0.2
03/02:00am 14.8 13.6 12.7 87 1.2 WSW 11 13 6 7 - - 0.2
03/01:30am 14.7 13.5 12.9 89 1.0 W 11 13 6 7 - - 0.2
03/01:00am 14.6 13.4 12.8 89 1.0 W 11 13 6 7 - - 0.2
03/12:30am 14.6 13.4 12.8 89 1.0 W 11 13 6 7 - - 0.2
03/12:00am 14.7 13.2 13.1 90 0.9 W 13 15 7 8 - - 0.2
 
Date/Time
EDT
Temp
°C
App
Temp
°C
Dew
Point
°C
Rel
Hum
%
Delta-T
°C
Wind Press
QNH
hPa
Press
MSL
hPa
Rain since
9am
mm
Dir  Spd
km/h
Gust
km/h
Spd
kts
Gust
kts
02/11:30pm 14.9 13.9 13.4 91 0.8 W 11 13 6 7 - - 0.2
02/11:00pm 14.9 14.0 13.6 92 0.7 W 11 13 6 7 - - 0.2
02/10:30pm 14.8 13.8 13.5 92 0.7 W 11 13 6 7 - - 0.2
02/10:00pm 14.9 14.0 13.6 92 0.7 W 11 13 6 7 - - 0.2
02/09:30pm 15.1 14.2 13.8 92 0.7 W 11 11 6 6 - - 0.2
02/09:00pm 15.6 16.1 14.1 91 0.8 WNW 4 9 2 5 - - 0.2
02/08:30pm 15.9 16.9 14.3 90 0.9 WNW 2 6 1 3 - - 0.2
02/08:00pm 16.2 16.4 14.2 88 1.1 WNW 6 7 3 4 - - 0.2
02/07:30pm 16.4 16.7 14.6 89 1.0 WNW 6 9 3 5 - - 0.2
02/07:00pm 16.3 16.1 14.8 91 0.9 WNW 9 11 5 6 - - 0.2
02/06:30pm 15.9 15.2 14.4 91 0.9 WNW 11 15 6 8 - - 0.2
02/06:00pm 16.0 16.1 14.5 91 0.9 W 7 11 4 6 - - 0.2
02/05:30pm 16.0 14.5 14.2 89 1.0 SSE 15 19 8 10 - - 0.0
02/05:00pm 17.2 13.2 14.1 82 1.8 SSE 28 35 15 19 - - 0.0
02/04:30pm 19.0 15.8 14.3 74 2.7 S 24 28 13 15 - - 0.0
02/04:00pm 18.7 15.6 14.6 77 2.4 S 24 28 13 15 - - 0.0
02/03:30pm 18.7 15.0 15.0 79 2.2 S 28 32 15 17 - - 0.0
02/03:00pm 20.8 18.8 14.9 69 3.5 SSE 19 22 10 12 - - 0.0
02/02:30pm 19.8 17.8 14.0 69 3.3 S 17 20 9 11 - - 0.0
02/02:00pm 19.4 18.5 13.8 70 3.2 S 11 15 6 8 - - 0.0
02/01:30pm 18.9 18.7 14.6 76 2.5 SSW 9 13 5 7 - - 0.0
02/01:00pm 18.8 17.7 14.3 75 2.6 SSE 13 17 7 9 - - 0.0
02/12:30pm 19.6 17.4 14.4 72 3.0 SSE 19 24 10 13 - - 0.0
02/12:00pm 19.6 16.9 14.6 73 2.9 SSE 22 24 12 13 - - 0.0
02/11:30am 20.0 18.0 13.9 68 3.5 SSE 17 19 9 10 - - 0.0
02/11:00am 19.4 17.9 13.1 67 3.6 S 13 17 7 9 - - 0.0
02/10:30am 18.9 17.0 12.9 68 3.4 S 15 19 8 10 - - 0.0
02/10:00am 19.8 18.5 13.7 68 3.5 S 13 17 7 9 - - 0.0
02/09:30am 19.0 17.8 12.7 67 3.5 S 11 13 6 7 - - 0.0
02/09:00am 18.9 17.9 13.3 70 3.2 SSW 11 15 6 8 - - 0.0
02/08:30am 18.2 16.4 13.3 73 2.8 SW 15 19 8 10 - - 0.0
02/08:00am 17.1 15.1 13.8 81 1.9 S 17 24 9 13 - - 0.0
02/07:30am 16.6 14.7 13.1 80 2.0 SSW 15 19 8 10 - - 0.0
02/07:00am 16.2 14.3 12.9 81 1.8 SW 15 19 8 10 - - 0.0
02/06:30am 16.4 14.5 13.1 81 1.8 WSW 15 19 8 10 - - 0.0
02/06:00am 17.5 14.1 13.8 79 2.1 SSW 24 28 13 15 - - 0.0
02/05:30am 18.1 14.0 10.2 60 4.2 SE 22 30 12 16 - - 0.0
02/05:00am 18.1 15.4 13.0 72 2.9 SE 19 20 10 11 - - 0.0
02/04:30am 17.9 15.2 11.7 67 3.4 SE 17 20 9 11 - - 0.0
02/04:00am 17.9 15.3 12.1 69 3.2 SE 17 19 9 10 - - 0.0
02/03:30am 18.0 15.4 12.0 68 3.3 SE 17 20 9 11 - - 0.0
02/03:00am 18.0 15.4 12.0 68 3.3 SE 17 20 9 11 - - 0.0
02/02:30am 18.0 15.3 11.6 66 3.5 SE 17 20 9 11 - - 0.0
02/02:00am 18.0 15.4 12.0 68 3.3 SE 17 20 9 11 - - 0.0
02/01:30am 17.9 14.5 11.2 65 3.6 SE 20 22 11 12 - - 0.0
02/01:00am 18.0 14.9 11.6 66 3.5 SE 19 24 10 13 - - 0.0
02/12:30am 18.0 15.0 12.5 70 3.1 SE 20 24 11 13 - - 0.0
02/12:00am 18.1 15.0 11.7 66 3.5 SE 19 24 10 13 - - 0.0
 
Date/Time
EDT
Temp
°C
App
Temp
°C
Dew
Point
°C
Rel
Hum
%
Delta-T
°C
Wind Press
QNH
hPa
Press
MSL
hPa
Rain since
9am
mm
Dir  Spd
km/h
Gust
km/h
Spd
kts
Gust
kts
01/11:30pm 18.1 15.3 12.5 70 3.1 ESE 19 22 10 12 - - 0.0
01/11:00pm 18.2 15.2 12.6 70 3.1 SE 20 24 11 13 - - 0.0
01/10:30pm 18.1 15.0 12.1 68 3.3 SE 20 22 11 12 - - 0.0
01/10:00pm 18.1 14.8 11.7 66 3.5 SE 20 24 11 13 - - 0.0
01/09:30pm 18.1 15.1 12.1 68 3.3 SE 19 20 10 11 - - 0.0
01/09:00pm 18.1 15.6 12.3 69 3.2 ESE 17 19 9 10 - - 0.0
01/08:30pm 18.1 15.5 12.1 68 3.3 SE 17 19 9 10 - - 0.0
01/08:00pm 18.4 16.0 12.8 70 3.1 ESE 17 19 9 10 - - 0.0
01/07:30pm 18.4 16.3 12.4 68 3.3 ESE 15 17 8 9 - - 0.0
01/07:00pm 18.7 17.1 12.7 68 3.4 ESE 13 17 7 9 - - 0.0
01/06:30pm 18.7 16.5 12.2 66 3.6 E 15 19 8 10 - - 0.0
01/06:00pm 19.1 17.1 12.8 67 3.5 E 15 20 8 11 - - 0.0
01/05:30pm 19.3 17.4 11.8 62 4.1 ESE 13 19 7 10 - - 0.0
01/05:00pm 20.0 18.3 12.3 61 4.3 E 13 17 7 9 - - 0.0
01/04:30pm 20.3 18.3 11.5 57 4.9 E 13 15 7 8 - - 0.0
01/04:00pm 20.6 18.8 12.1 58 4.8 E 13 17 7 9 - - 0.0
01/03:30pm 20.1 17.8 11.6 58 4.7 ENE 15 17 8 9 - - 0.0
01/03:00pm 20.7 18.8 12.9 61 4.4 E 15 19 8 10 - - 0.0
01/02:30pm 21.0 18.8 12.2 57 4.9 ENE 15 19 8 10 - - 0.0
01/02:00pm 20.7 18.5 12.1 58 4.8 ENE 15 19 8 10 - - 0.0
01/01:30pm 20.6 18.4 12.1 58 4.8 ENE 15 19 8 10 - - 0.0
01/01:00pm 21.1 18.8 13.0 60 4.6 E 17 19 9 10 - - 0.0
01/12:30pm 20.6 18.2 12.6 60 4.5 E 17 20 9 11 - - 0.0
01/12:00pm 20.5 18.3 13.2 63 4.2 E 17 20 9 11 - - 0.0
01/11:30am 20.0 17.6 12.7 63 4.1 ESE 17 19 9 10 - - 0.0
01/11:00am 20.3 18.4 13.0 63 4.1 E 15 17 8 9 - - 0.0
01/10:30am 20.1 18.5 12.8 63 4.1 E 13 15 7 8 - - 0.0
01/10:00am 19.6 17.9 12.6 64 3.9 E 13 13 7 7 - - 0.0
01/09:30am 18.9 17.6 13.7 72 3.0 SSW 13 17 7 9 - - 0.0
01/09:00am 18.4 16.9 13.1 71 3.0 S 13 15 7 8 - - 0.0
01/08:30am 18.4 18.0 13.1 71 3.0 SSW 7 9 4 5 - - 0.0
01/08:00am 17.7 17.2 12.6 72 2.8 SW 7 9 4 5 - - 0.0
01/07:30am 17.2 16.3 12.5 74 2.6 SW 9 11 5 6 - - 0.0
01/07:00am 16.8 15.8 12.3 75 2.5 SW 9 11 5 6 - - 0.0
01/06:30am 16.4 15.4 12.4 77 2.2 SW 9 11 5 6 - - 0.0
01/06:00am 16.1 15.1 12.3 78 2.1 SW 9 11 5 6 - - 0.0
01/05:30am 16.0 14.6 12.2 78 2.1 SW 11 13 6 7 - - 0.0
01/05:00am 16.1 15.5 12.3 78 2.1 W 7 9 4 5 - - 0.0
01/04:30am 16.3 15.8 11.9 75 2.4 WNW 6 6 3 3 - - 0.0
01/04:00am 16.7 16.1 11.6 72 2.8 WNW 6 7 3 4 - - 0.0
01/03:30am 17.0 16.5 12.1 73 2.7 NNW 6 7 3 4 - - 0.0
01/03:00am 17.0 16.5 11.9 72 2.8 NW 6 7 3 4 - - 0.0
01/02:30am 17.1 16.6 12.0 72 2.8 NW 6 7 3 4 - - 0.0
01/02:00am 17.3 16.2 12.0 71 2.9 NNW 9 13 5 7 - - 0.0
01/01:30am 17.3 16.3 12.4 73 2.7 NNW 9 13 5 7 - - 0.0
01/01:00am 17.0 15.9 12.1 73 2.7 NW 9 11 5 6 - - 0.0
01/12:30am 16.8 15.6 11.7 72 2.8 NW 9 11 5 6 - - 0.0
01/12:00am 16.7 15.9 11.6 72 2.8 NW 7 9 4 5 - - 0.0
 
Date/Time
EDT
Temp
°C
App
Temp
°C
Dew
Point
°C
Rel
Hum
%
Delta-T
°C
Wind Press
QNH
hPa
Press
MSL
hPa
Rain since
9am
mm
Dir  Spd
km/h
Gust
km/h
Spd
kts
Gust
kts
30/11:30pm 17.3 16.3 12.2 72 2.8 NNW 9 13 5 7 - - 0.0
30/11:00pm 17.5 16.1 12.2 71 2.9 NNW 11 15 6 8 - - 0.0
30/10:30pm 17.5 16.0 12.0 70 3.0 NNW 11 15 6 8 - - 0.0
30/10:00pm 17.7 16.0 12.4 71 2.9 N 13 20 7 11 - - 0.0
30/09:30pm 17.7 15.4 11.9 69 3.2 N 15 19 8 10 - - 0.0
30/09:00pm 17.9 14.9 12.4 70 3.1 N 20 24 11 13 - - 0.0
30/08:30pm 17.9 14.3 11.9 68 3.3 NNE 22 28 12 15 - - 0.0
30/08:00pm 17.8 14.6 12.0 69 3.2 NNE 20 26 11 14 - - 0.0

Latest Capital City Observations: Canberra | Sydney | Melbourne | Brisbane | Adelaide | Perth | Hobart | Darwin

Other formats

Comma delimited format used in spreadsheet applications
http://www.bom.gov.au/fwo/IDN60901/IDN60901.94749.axf

JavaScript Object Notation format (JSON) in row-major order
http://www.bom.gov.au/fwo/IDN60901/IDN60901.94749.json

Data quality

Most of these data are generated automatically and are frequently updated. Quality checks on data are not normally performed. It is possible for incorrect values to appear. Refer to information at About Latest Weather Observations and please check the disclaimer before using these data.